Time;durP1;ratioP1;P1;durP2;ratioP2;P2;SDS_P1;SDS_P2;PMS_P1;PMS_P2;Temp;Humidity;BMP_temperature;BMP_pressure;BME280_temperature;BME280_humidity;BME280_pressure;Samples;Min_cycle;Max_cycle;Signal;HPM_P1;HPM_P2
2022/08/15 00:01:01;;;;;;;8.03;6.87;;;;;;;17.64;100.00;94063.91;6304864;22;20247;-82
2022/08/15 00:03:33;;;;;;;8.03;6.77;;;;;;;17.53;100.00;94068.44;6304872;22;20172;-81
2022/08/15 00:06:03;;;;;;;10.47;7.47;;;;;;;17.44;100.00;94070.06;6304816;22;20230;-82
2022/08/15 00:08:32;;;;;;;9.27;7.27;;;;;;;17.40;100.00;94082.97;6305307;22;20505;-80
2022/08/15 00:11:01;;;;;;;10.77;8.37;;;;;;;17.39;100.00;94075.38;6304863;22;20174;-81
2022/08/15 00:13:31;;;;;;;10.53;8.10;;;;;;;17.37;100.00;94065.13;6304485;22;20495;-81
2022/08/15 00:15:58;;;;;;;8.97;7.63;;;;;;;17.67;100.00;94079.91;6305017;22;20165;-81
2022/08/15 00:18:27;;;;;;;9.97;7.70;;;;;;;17.92;100.00;94071.03;6305273;22;20237;-81
2022/08/15 00:20:57;;;;;;;10.97;8.70;;;;;;;18.02;100.00;94074.34;6304872;22;20164;-82
2022/08/15 00:23:27;;;;;;;11.07;8.57;;;;;;;18.12;100.00;94068.22;6304263;22;20169;-82
2022/08/15 00:25:58;;;;;;;11.20;8.10;;;;;;;18.22;100.00;94069.94;6304913;22;20188;-83
2022/08/15 00:28:26;;;;;;;9.73;8.47;;;;;;;18.04;100.00;94060.91;6304815;22;20152;-82
2022/08/15 00:30:53;;;;;;;12.30;9.07;;;;;;;18.07;100.00;94066.41;6304734;22;20168;-82
2022/08/15 00:33:21;;;;;;;11.57;9.00;;;;;;;17.98;100.00;94060.16;6304376;22;20627;-82
2022/08/15 00:35:50;;;;;;;12.40;9.10;;;;;;;17.88;100.00;94052.41;6303581;22;20171;-82
2022/08/15 00:38:22;;;;;;;12.90;9.70;;;;;;;17.80;100.00;94060.88;6302999;22;20169;-82
2022/08/15 00:43:38;;;;;;;12.23;9.63;;;;;;;17.71;100.00;94065.16;6304056;22;20203;-81
2022/08/15 00:46:07;;;;;;;13.50;10.03;;;;;;;17.72;100.00;94061.47;6304932;22;20192;-81
2022/08/15 00:48:42;;;;;;;12.17;9.60;;;;;;;17.66;100.00;94059.19;6304749;22;20171;-81
2022/08/15 00:51:14;;;;;;;13.33;9.63;;;;;;;17.70;100.00;94058.34;6304813;22;20163;-85
2022/08/15 00:53:46;;;;;;;12.87;9.30;;;;;;;17.72;100.00;94058.84;6304768;22;20152;-84
2022/08/15 00:56:15;;;;;;;11.67;9.13;;;;;;;17.69;100.00;94064.63;6306729;22;20160;-85
2022/08/15 00:58:43;;;;;;;13.03;9.80;;;;;;;17.76;100.00;94059.06;6304574;22;20553;-84
2022/08/15 01:01:12;;;;;;;12.93;9.70;;;;;;;17.71;100.00;94054.66;6304591;22;20168;-83
2022/08/15 01:03:42;;;;;;;12.83;9.77;;;;;;;17.75;100.00;94050.41;6304628;22;20251;-85
2022/08/15 01:06:09;;;;;;;15.57;9.70;;;;;;;17.68;100.00;94039.44;6305006;22;20245;-85
2022/08/15 01:08:40;;;;;;;13.20;10.17;;;;;;;17.64;100.00;94038.41;6304475;22;20183;-84
2022/08/15 01:11:15;;;;;;;15.30;9.90;;;;;;;17.66;100.00;94025.78;6304742;22;20160;-83
2022/08/15 01:13:47;;;;;;;13.87;10.10;;;;;;;17.70;100.00;94037.31;6303350;22;20152;-77
2022/08/15 01:16:14;;;;;;;13.97;10.63;;;;;;;17.66;100.00;94030.25;6302911;22;20156;-76
2022/08/15 01:18:42;;;;;;;13.30;9.90;;;;;;;17.72;100.00;94031.78;6302469;22;20171;-76
2022/08/15 01:21:18;;;;;;;13.33;9.80;;;;;;;17.58;100.00;94029.00;6302943;22;20484;-78
2022/08/15 01:23:57;;;;;;;13.50;10.27;;;;;;;17.72;100.00;94040.44;6302135;22;20282;-77
2022/08/15 01:26:27;;;;;;;14.03;9.70;;;;;;;17.76;100.00;94046.72;6302167;22;20201;-76
2022/08/15 01:28:55;;;;;;;13.47;10.53;;;;;;;17.74;100.00;94055.94;6302101;22;20152;-77
2022/08/15 01:31:23;;;;;;;13.50;10.27;;;;;;;17.62;100.00;94053.69;6302692;22;20247;-77
2022/08/15 01:33:53;;;;;;;14.27;10.07;;;;;;;17.67;100.00;94056.25;6302086;22;20690;-77
2022/08/15 01:36:23;;;;;;;15.23;10.30;;;;;;;17.70;100.00;94055.69;6302320;22;20848;-76
2022/08/15 01:38:57;;;;;;;14.37;10.23;;;;;;;17.72;100.00;94050.94;6301642;22;20172;-77
2022/08/15 01:41:36;;;;;;;11.17;9.60;;;;;;;17.79;100.00;94045.38;6301753;22;20155;-77
2022/08/15 01:44:10;;;;;;;14.63;10.33;;;;;;;17.78;100.00;94035.91;6301397;22;20206;-77
2022/08/15 01:46:41;;;;;;;12.73;10.57;;;;;;;17.75;100.00;94053.03;6301380;22;20184;-77
2022/08/15 01:49:13;;;;;;;13.20;10.07;;;;;;;17.72;100.00;94052.81;6301052;22;20156;-77
2022/08/15 01:51:41;;;;;;;11.47;9.30;;;;;;;17.72;100.00;94042.31;6302309;22;20160;-77
2022/08/15 01:54:11;;;;;;;15.10;9.40;;;;;;;17.69;100.00;94045.47;6300085;22;20888;-77
2022/08/15 01:56:42;;;;;;;12.87;9.63;;;;;;;17.73;100.00;94044.63;6301470;22;20171;-78
2022/08/15 01:59:18;;;;;;;11.93;9.33;;;;;;;17.67;100.00;94034.44;6302328;22;20160;-77
2022/08/15 02:01:48;;;;;;;12.53;9.17;;;;;;;17.69;100.00;94040.97;6301884;22;20156;-77
2022/08/15 02:04:18;;;;;;;13.63;9.30;;;;;;;17.65;100.00;94037.34;6302142;22;20175;-76
2022/08/15 02:06:47;;;;;;;13.10;9.63;;;;;;;17.72;100.00;94037.81;6302672;22;20712;-76
2022/08/15 02:09:19;;;;;;;12.43;10.27;;;;;;;17.72;100.00;94029.91;6302419;22;20165;-76
2022/08/15 02:11:48;;;;;;;12.80;10.33;;;;;;;17.55;100.00;94021.66;6302340;22;20157;-77
2022/08/15 02:14:16;;;;;;;12.63;10.67;;;;;;;17.56;100.00;94029.28;6301888;22;20519;-76
2022/08/15 02:16:44;;;;;;;13.93;10.43;;;;;;;17.68;100.00;94042.06;6302296;22;20485;-76
2022/08/15 02:19:13;;;;;;;14.13;11.17;;;;;;;17.65;100.00;94041.81;6302607;22;20164;-76
2022/08/15 02:21:42;;;;;;;16.20;11.80;;;;;;;17.67;100.00;94043.13;6302036;22;20620;-76
2022/08/15 02:24:12;;;;;;;13.93;10.87;;;;;;;17.58;100.00;94035.03;6301614;22;20192;-75
2022/08/15 02:26:39;;;;;;;14.87;11.40;;;;;;;17.60;100.00;94041.88;6302142;22;20192;-75
2022/08/15 02:29:08;;;;;;;16.47;11.93;;;;;;;17.60;100.00;94047.91;6302250;22;20176;-76
2022/08/15 02:31:35;;;;;;;17.47;12.10;;;;;;;17.41;100.00;94049.59;6301247;22;20164;-76
2022/08/15 02:34:04;;;;;;;17.17;11.83;;;;;;;17.33;100.00;94052.81;6302342;22;20202;-76
2022/08/15 02:36:35;;;;;;;15.60;11.57;;;;;;;17.31;100.00;94055.75;6302605;22;20171;-77
2022/08/15 02:39:08;;;;;;;15.97;12.40;;;;;;;17.23;100.00;94058.16;6302067;22;20207;-77
2022/08/15 02:41:38;;;;;;;19.30;12.40;;;;;;;17.24;100.00;94063.13;6302813;22;20168;-77
2022/08/15 02:44:06;;;;;;;17.67;12.57;;;;;;;17.31;100.00;94068.09;6303830;22;20179;-77
2022/08/15 02:46:37;;;;;;;18.27;13.10;;;;;;;17.32;100.00;94069.63;6304367;22;20192;-77
2022/08/15 02:49:12;;;;;;;18.27;13.67;;;;;;;17.35;100.00;94077.75;6304947;22;20847;-77
2022/08/15 02:51:41;;;;;;;17.03;13.07;;;;;;;17.37;100.00;94078.25;6304632;22;20159;-75
2022/08/15 02:54:09;;;;;;;22.90;13.63;;;;;;;17.35;100.00;94072.50;6303492;22;20528;-76
2022/08/15 02:56:37;;;;;;;23.50;14.33;;;;;;;17.36;100.00;94076.72;6304549;22;20171;-77
2022/08/15 02:59:07;;;;;;;19.73;13.40;;;;;;;17.41;100.00;94076.66;6304449;22;20256;-77
2022/08/15 03:01:38;;;;;;;19.10;14.93;;;;;;;17.38;100.00;94074.59;6303295;22;20172;-77
2022/08/15 03:04:06;;;;;;;20.17;14.47;;;;;;;17.25;100.00;94087.56;6303659;22;20156;-76
2022/08/15 03:06:34;;;;;;;22.67;15.07;;;;;;;17.26;100.00;94079.38;6303882;22;20257;-77
2022/08/15 03:09:07;;;;;;;22.40;15.20;;;;;;;17.21;100.00;94076.81;6304049;22;20168;-77
2022/08/15 03:11:37;;;;;;;20.83;15.07;;;;;;;17.19;100.00;94078.13;6304115;22;20494;-76
2022/08/15 03:14:07;;;;;;;18.60;14.30;;;;;;;17.26;100.00;94094.34;6303782;22;20191;-78
2022/08/15 03:16:36;;;;;;;22.73;15.50;;;;;;;17.29;100.00;94099.06;6303452;22;20168;-78
2022/08/15 03:19:03;;;;;;;22.47;15.40;;;;;;;17.24;100.00;94085.97;6303517;22;20168;-78
2022/08/15 03:21:31;;;;;;;23.83;16.40;;;;;;;17.23;100.00;94100.94;6303466;22;20183;-76
2022/08/15 03:23:58;;;;;;;22.17;16.37;;;;;;;17.07;100.00;94086.34;6303596;22;20196;-77
2022/08/15 03:26:26;;;;;;;23.37;16.10;;;;;;;17.17;100.00;94111.78;6304500;22;20196;-77
2022/08/15 03:28:53;;;;;;;20.83;15.57;;;;;;;17.14;100.00;94117.56;6304310;22;20654;-78
2022/08/15 03:31:20;;;;;;;22.00;15.37;;;;;;;17.13;100.00;94118.63;6303272;22;20176;-75
2022/08/15 03:33:48;;;;;;;24.33;15.47;;;;;;;17.14;100.00;94125.44;6303038;22;20172;-76
2022/08/15 03:36:17;;;;;;;22.93;15.93;;;;;;;17.13;100.00;94106.28;6303458;22;20164;-74
2022/08/15 03:38:45;;;;;;;22.37;15.80;;;;;;;17.15;100.00;94117.28;6302885;22;20642;-75
2022/08/15 03:41:13;;;;;;;23.43;16.47;;;;;;;17.18;100.00;94121.22;6304480;22;20171;-74
2022/08/15 03:43:42;;;;;;;23.23;16.17;;;;;;;17.21;100.00;94124.09;6303200;22;20615;-75
2022/08/15 03:46:12;;;;;;;22.23;16.90;;;;;;;17.27;100.00;94117.75;6303161;22;20256;-76
2022/08/15 03:48:43;;;;;;;23.00;16.20;;;;;;;17.29;100.00;94120.09;6303817;22;20168;-75
2022/08/15 03:51:13;;;;;;;25.60;17.47;;;;;;;17.30;100.00;94117.19;6303626;22;20191;-76
2022/08/15 03:53:45;;;;;;;25.40;17.90;;;;;;;17.36;100.00;94124.00;6302641;22;20681;-76
2022/08/15 03:56:14;;;;;;;24.97;17.40;;;;;;;17.47;100.00;94125.50;6303223;22;20167;-75
2022/08/15 03:58:41;;;;;;;25.70;17.93;;;;;;;17.47;100.00;94132.59;6303373;22;20164;-75
2022/08/15 04:01:12;;;;;;;27.47;18.90;;;;;;;17.48;100.00;94124.44;6302917;22;20167;-75
2022/08/15 04:03:39;;;;;;;27.87;18.87;;;;;;;17.56;100.00;94133.63;6301848;22;20257;-74
2022/08/15 04:06:10;;;;;;;29.77;18.63;;;;;;;17.58;100.00;94132.28;6303702;22;20488;-75
2022/08/15 04:08:39;;;;;;;28.70;19.70;;;;;;;17.61;100.00;94130.16;6303003;22;20153;-75
2022/08/15 04:11:08;;;;;;;26.17;18.47;;;;;;;17.59;100.00;94130.44;6303063;22;20255;-75
2022/08/15 04:13:36;;;;;;;26.67;18.53;;;;;;;17.66;100.00;94132.75;6302495;22;20900;-77
2022/08/15 04:16:03;;;;;;;28.57;19.27;;;;;;;17.56;100.00;94120.47;6303977;22;20491;-77
2022/08/15 04:18:31;;;;;;;26.73;19.47;;;;;;;17.74;100.00;94125.06;6303405;22;20931;-76
2022/08/15 04:21:00;;;;;;;27.23;19.57;;;;;;;17.73;100.00;94118.25;6303360;22;20168;-76
2022/08/15 04:23:27;;;;;;;27.87;20.03;;;;;;;17.83;100.00;94127.91;6302469;22;20515;-80
2022/08/15 04:25:56;;;;;;;26.27;18.80;;;;;;;17.84;100.00;94121.56;6303055;22;20161;-75
2022/08/15 04:28:25;;;;;;;27.13;19.70;;;;;;;17.76;100.00;94109.00;6303125;22;20195;-76
2022/08/15 04:30:52;;;;;;;27.77;19.63;;;;;;;17.90;100.00;94109.94;6302877;22;20176;-78
2022/08/15 04:33:22;;;;;;;27.27;19.80;;;;;;;17.92;100.00;94108.59;6303135;22;20175;-77
2022/08/15 04:35:52;;;;;;;31.23;20.53;;;;;;;17.97;100.00;94111.22;6302225;22;20167;-77
2022/08/15 04:38:19;;;;;;;30.67;20.13;;;;;;;18.07;100.00;94115.56;6302786;22;20160;-78
2022/08/15 04:40:47;;;;;;;30.63;21.10;;;;;;;18.05;100.00;94115.06;6302961;22;20172;-78
2022/08/15 04:43:17;;;;;;;29.27;20.33;;;;;;;18.07;100.00;94110.31;6302773;22;20917;-78
2022/08/15 04:45:44;;;;;;;31.50;21.53;;;;;;;18.10;100.00;94118.44;6302653;22;20176;-76
2022/08/15 04:48:14;;;;;;;31.63;21.37;;;;;;;18.17;100.00;94118.13;6302803;22;20199;-77
2022/08/15 04:50:44;;;;;;;34.27;22.93;;;;;;;18.24;100.00;94125.69;6302949;22;20172;-76
2022/08/15 04:53:11;;;;;;;32.97;22.53;;;;;;;18.25;100.00;94127.25;6302638;22;20175;-77
2022/08/15 04:55:41;;;;;;;32.47;22.87;;;;;;;18.22;100.00;94131.22;6302759;22;20230;-76
2022/08/15 04:58:09;;;;;;;31.13;22.33;;;;;;;18.27;100.00;94125.16;6303372;22;20155;-77
2022/08/15 05:00:40;;;;;;;33.50;23.23;;;;;;;18.29;100.00;94133.53;6303044;22;20165;-77
2022/08/15 05:03:10;;;;;;;33.00;23.20;;;;;;;18.33;100.00;94132.69;6302385;22;20163;-77
2022/08/15 05:05:41;;;;;;;34.37;23.43;;;;;;;18.45;100.00;94129.69;6302671;22;20168;-78
2022/08/15 05:08:09;;;;;;;35.23;22.90;;;;;;;18.58;100.00;94131.69;6302839;22;20173;-77
2022/08/15 05:10:36;;;;;;;35.10;23.60;;;;;;;18.62;100.00;94117.69;6302653;22;20180;-76
2022/08/15 05:13:12;;;;;;;35.70;23.47;;;;;;;18.65;100.00;94126.84;6303865;22;20175;-76
2022/08/15 05:15:42;;;;;;;32.17;23.07;;;;;;;18.65;100.00;94124.22;6302593;22;20156;-77
2022/08/15 05:18:09;;;;;;;30.37;22.13;;;;;;;18.63;100.00;94124.50;6302601;22;20168;-77
2022/08/15 05:20:36;;;;;;;30.03;21.83;;;;;;;18.60;100.00;94117.19;6302709;22;20176;-76
2022/08/15 05:23:06;;;;;;;30.60;21.97;;;;;;;18.58;100.00;94126.41;6302833;22;20504;-76
2022/08/15 05:25:35;;;;;;;34.07;23.23;;;;;;;18.63;100.00;94121.09;6301310;22;20547;-77
2022/08/15 05:28:02;;;;;;;30.40;21.33;;;;;;;18.67;100.00;94114.97;6303293;22;20199;-77
2022/08/15 05:30:29;;;;;;;31.83;21.60;;;;;;;18.75;100.00;94121.50;6301948;22;20945;-77
2022/08/15 05:33:06;;;;;;;30.40;21.70;;;;;;;18.65;100.00;94118.97;6302935;22;20168;-77
2022/08/15 05:35:34;;;;;;;34.37;22.03;;;;;;;18.67;100.00;94117.59;6302416;22;20168;-77
2022/08/15 05:38:04;;;;;;;31.33;20.90;;;;;;;18.68;100.00;94126.28;6302686;22;20160;-78
2022/08/15 05:40:39;;;;;;;32.33;22.00;;;;;;;18.70;100.00;94116.25;6302658;22;20163;-78
2022/08/15 05:43:13;;;;;;;33.53;23.23;;;;;;;18.85;100.00;94117.94;6301776;22;20156;-78
2022/08/15 05:45:46;;;;;;;29.77;21.70;;;;;;;18.87;100.00;94131.63;6302144;22;20163;-77
2022/08/15 05:48:17;;;;;;;27.47;21.00;;;;;;;18.85;100.00;94121.34;6304120;22;20172;-83
2022/08/15 05:50:53;;;;;;;34.60;22.83;;;;;;;18.86;100.00;94128.19;6302103;22;20156;-77
2022/08/15 05:53:29;;;;;;;33.10;21.93;;;;;;;18.85;100.00;94131.88;6301497;22;20163;-76
2022/08/15 05:56:03;;;;;;;31.23;22.35;;;;;;;18.84;100.00;94140.88;6301526;22;20238;-76
2022/08/15 05:58:40;;;;;;;29.37;21.63;;;;;;;19.30;100.00;94141.06;6301591;22;20512;-76
2022/08/15 06:01:15;;;;;;;28.90;21.40;;;;;;;19.54;100.00;94141.81;6302401;22;20209;-77
2022/08/15 06:03:47;;;;;;;27.80;21.87;;;;;;;19.52;100.00;94132.63;6301919;22;20156;-75
2022/08/15 06:06:20;;;;;;;33.07;22.40;;;;;;;19.63;100.00;94139.31;6301981;22;20156;-77
2022/08/15 06:08:51;;;;;;;32.33;22.17;;;;;;;19.61;100.00;94126.41;6302135;22;20263;-76
2022/08/15 06:11:26;;;;;;;29.87;21.70;;;;;;;19.66;100.00;94138.72;6302650;22;20214;-76
2022/08/15 06:13:58;;;;;;;29.67;21.98;;;;;;;19.71;100.00;94131.53;6302734;22;20195;-76
2022/08/15 06:16:32;;;;;;;31.65;21.98;;;;;;;19.72;100.00;94135.75;6305046;22;20164;-76
2022/08/15 06:19:05;;;;;;;38.08;21.83;;;;;;;19.79;100.00;94136.16;6305086;22;20746;-77
2022/08/15 06:21:40;;;;;;;30.90;23.25;;;;;;;19.67;100.00;94127.91;6303805;22;20168;-76
2022/08/15 06:24:14;;;;;;;37.40;23.77;;;;;;;19.59;100.00;94133.84;6304730;22;20199;-76
2022/08/15 06:26:49;;;;;;;34.40;24.13;;;;;;;19.53;100.00;94134.97;6303867;22;20159;-75
2022/08/15 06:29:40;;;;;;;35.35;23.70;;;;;;;19.55;100.00;94134.69;6304654;22;20223;-73
2022/08/15 06:32:12;;;;;;;34.80;24.92;;;;;;;19.64;100.00;94135.59;6273894;22;20163;-86
2022/08/15 06:34:48;;;;;;;34.25;24.88;;;;;;;19.55;100.00;94126.78;6271983;22;21067;-79
2022/08/15 06:37:25;;;;;;;31.55;23.52;;;;;;;19.47;100.00;94138.75;6289862;22;20227;-79
2022/08/15 06:40:08;;;;;;;32.80;22.95;;;;;;;19.42;100.00;94138.84;6303646;22;20217;-79
2022/08/15 06:42:37;;;;;;;31.73;23.30;;;;;;;19.55;100.00;94140.75;6303573;22;20606;-79
2022/08/15 06:45:08;;;;;;;31.52;23.33;;;;;;;19.58;100.00;94144.66;6303049;22;20494;-79
2022/08/15 06:47:36;;;;;;;33.70;23.48;;;;;;;19.55;100.00;94145.22;6303725;22;20211;-78
2022/08/15 06:50:10;;;;;;;35.57;25.37;;;;;;;19.41;100.00;94147.81;6303070;22;20586;-78
2022/08/15 06:52:38;;;;;;;39.53;25.60;;;;;;;19.47;100.00;94153.78;6304417;22;20163;-79
2022/08/15 06:55:05;;;;;;;37.65;25.50;;;;;;;19.52;100.00;94151.06;6303674;22;20168;-78
2022/08/15 06:57:41;;;;;;;35.47;24.85;;;;;;;19.48;100.00;94145.56;6304009;22;20217;-77
2022/08/15 07:00:12;;;;;;;35.55;25.52;;;;;;;19.52;100.00;94154.50;6303197;22;20182;-77
2022/08/15 07:02:53;;;;;;;36.95;26.48;;;;;;;19.65;100.00;94159.03;6304329;22;20156;-78
2022/08/15 07:05:27;;;;;;;41.70;27.30;;;;;;;19.66;100.00;94157.97;6303405;22;20196;-78
2022/08/15 07:08:00;;;;;;;35.58;25.70;;;;;;;19.80;100.00;94160.66;6303975;22;20186;-77
2022/08/15 07:10:37;;;;;;;35.45;24.90;;;;;;;19.77;100.00;94153.31;6303470;22;20528;-77
2022/08/15 07:13:13;;;;;;;33.97;24.08;;;;;;;19.88;100.00;94148.69;6304101;22;20148;-79
2022/08/15 07:15:50;;;;;;;33.65;23.60;;;;;;;19.98;100.00;94153.81;6275205;22;20682;-76
2022/08/15 07:18:25;;;;;;;34.17;24.75;;;;;;;20.03;100.00;94153.75;6303583;22;20160;-77
2022/08/15 07:21:01;;;;;;;31.70;23.27;;;;;;;20.12;100.00;94165.19;6303059;22;20562;-78
2022/08/15 07:23:30;;;;;;;31.92;24.27;;;;;;;20.15;100.00;94154.03;6304249;22;20152;-78
2022/08/15 07:26:06;;;;;;;36.13;24.27;;;;;;;20.10;100.00;94139.09;6303504;22;20156;-78
2022/08/15 07:28:35;;;;;;;32.33;23.65;;;;;;;20.22;100.00;94154.47;6303720;22;20501;-78
2022/08/15 07:31:12;;;;;;;35.47;23.63;;;;;;;20.20;100.00;94149.47;6303983;22;20176;-78
2022/08/15 07:33:42;;;;;;;33.72;23.95;;;;;;;20.28;100.00;94156.78;6302496;22;20221;-78
2022/08/15 07:36:20;;;;;;;32.20;23.75;;;;;;;20.44;100.00;94156.50;6303444;22;20157;-86
2022/08/15 07:38:48;;;;;;;30.95;22.83;;;;;;;20.62;100.00;94159.06;6304647;22;20472;-82
2022/08/15 07:41:24;;;;;;;31.63;22.85;;;;;;;20.79;100.00;94166.41;6304799;22;20700;-83
2022/08/15 07:43:53;;;;;;;29.75;22.27;;;;;;;20.96;100.00;94169.25;6304632;22;20168;-84
2022/08/15 07:46:24;;;;;;;35.60;22.35;;;;;;;21.05;100.00;94164.84;6304766;22;20214;-82
2022/08/15 07:48:58;;;;;;;32.08;22.60;;;;;;;21.26;100.00;94171.31;6304013;22;20187;-83
2022/08/15 07:51:28;;;;;;;28.75;19.85;;;;;;;21.44;100.00;94167.75;6304246;22;20192;-82
2022/08/15 07:53:59;;;;;;;29.33;21.98;;;;;;;21.61;100.00;94161.84;6303780;22;20175;-82
2022/08/15 07:56:28;;;;;;;28.58;21.20;;;;;;;21.62;100.00;94173.97;6304259;22;20504;-83
2022/08/15 07:59:08;;;;;;;30.95;21.75;;;;;;;21.63;100.00;94167.63;6305263;22;20169;-82
2022/08/15 08:01:35;;;;;;;30.40;23.65;;;;;;;21.57;100.00;94174.09;6305098;22;20180;-83
2022/08/15 08:04:06;;;;;;;30.15;21.75;;;;;;;21.44;100.00;94178.34;6304368;22;20164;-82
2022/08/15 08:06:40;;;;;;;28.10;21.33;;;;;;;21.28;100.00;94185.03;6305458;22;20525;-82
2022/08/15 08:09:20;;;;;;;29.23;21.55;;;;;;;21.22;100.00;94188.06;6305012;22;20488;-82
2022/08/15 08:11:50;;;;;;;26.70;20.90;;;;;;;21.26;100.00;94189.84;6304835;22;20194;-83
2022/08/15 08:14:33;;;;;;;31.45;23.40;;;;;;;21.37;100.00;94196.47;6304308;22;20244;-82
2022/08/15 08:17:07;;;;;;;29.08;21.17;;;;;;;21.46;100.00;94194.69;6303910;22;20160;-82
2022/08/15 08:19:41;;;;;;;29.13;21.40;;;;;;;21.57;100.00;94187.31;6304352;22;20205;-82
2022/08/15 08:22:20;;;;;;;27.02;20.52;;;;;;;21.69;100.00;94178.88;6303803;22;20152;-81
2022/08/15 08:24:57;;;;;;;26.58;20.25;;;;;;;21.67;100.00;94181.03;6303633;22;20571;-83
2022/08/15 08:27:39;;;;;;;25.73;19.58;;;;;;;21.86;100.00;94182.44;6303743;22;20152;-81
2022/08/15 08:30:09;;;;;;;25.75;20.15;;;;;;;22.05;100.00;94188.38;6303059;22;20164;-81
2022/08/15 08:32:46;;;;;;;26.10;20.50;;;;;;;22.11;98.43;94182.97;6303502;22;20251;-78
2022/08/15 08:35:29;;;;;;;24.52;20.20;;;;;;;22.19;98.11;94179.59;6302649;22;20160;-78
2022/08/15 08:38:08;;;;;;;23.48;19.70;;;;;;;22.30;98.63;94175.63;6300840;22;20167;-77
2022/08/15 08:43:42;;;;;;;24.65;19.88;;;;;;;22.43;95.71;94185.34;6302590;22;20565;-78
2022/08/15 08:46:21;;;;;;;24.67;20.42;;;;;;;22.67;94.27;94188.47;6303019;22;20163;-71
2022/08/15 08:49:01;;;;;;;24.40;19.60;;;;;;;23.02;92.57;94176.94;6302417;22;20237;-75
2022/08/15 08:51:39;;;;;;;29.65;19.80;;;;;;;23.06;91.60;94175.22;6302745;22;20620;-74
2022/08/15 08:54:17;;;;;;;23.67;19.80;;;;;;;23.15;92.82;94173.38;6301712;22;20239;-75
2022/08/15 08:56:49;;;;;;;31.50;20.58;;;;;;;23.33;90.54;94171.56;6302824;22;20502;-74
2022/08/15 08:59:22;;;;;;;26.10;20.42;;;;;;;23.15;89.17;94170.72;6302538;22;20209;-75
2022/08/15 09:01:53;;;;;;;24.52;19.70;;;;;;;23.18;90.09;94162.16;6302725;22;20152;-75
2022/08/15 09:04:29;;;;;;;25.58;20.80;;;;;;;23.18;89.77;94162.16;6301153;22;20157;-74
2022/08/15 09:06:58;;;;;;;30.35;21.25;;;;;;;23.12;89.04;94154.66;6303814;22;20231;-84
2022/08/15 09:09:31;;;;;;;26.70;21.13;;;;;;;23.18;89.10;94158.72;6302828;22;20198;-75
2022/08/15 09:12:03;;;;;;;21.13;16.75;;;;;;;23.24;90.96;94164.66;6301208;22;20152;-75
2022/08/15 09:14:34;;;;;;;24.48;20.23;;;;;;;23.31;88.27;94160.50;6302942;22;20578;-75
2022/08/15 09:17:07;;;;;;;25.90;19.35;;;;;;;23.36;89.31;94149.72;6302012;22;20197;-75
2022/08/15 09:19:46;;;;;;;24.52;19.42;;;;;;;23.37;88.90;94143.34;6302661;22;20152;-75
2022/08/15 09:22:13;;;;;;;23.75;18.83;;;;;;;23.42;88.80;94147.72;6302597;22;20160;-75
2022/08/15 09:24:42;;;;;;;25.25;19.27;;;;;;;23.45;88.86;94152.41;6301999;22;20200;-75
2022/08/15 09:27:17;;;;;;;24.90;19.17;;;;;;;23.50;88.91;94150.41;6301988;22;20168;-74
2022/08/15 09:29:47;;;;;;;25.17;18.80;;;;;;;23.32;89.34;94161.28;6302425;22;20179;-74
2022/08/15 09:32:34;;;;;;;22.92;18.63;;;;;;;23.39;87.69;94162.41;6301789;22;20175;-75
2022/08/15 09:35:26;;;;;;;18.90;16.05;;;;;;;23.62;88.79;94147.91;6302441;22;20160;-75
2022/08/15 09:38:11;;;;;;;24.60;18.45;;;;;;;23.65;87.78;94152.59;6302201;22;20203;-75
2022/08/15 09:41:09;;;;;;;21.45;17.13;;;;;;;24.22;86.04;94147.13;6302369;22;20160;-75
2022/08/15 09:44:10;;;;;;;21.27;16.80;;;;;;;24.50;82.99;94169.56;6268686;22;20172;-75
2022/08/15 09:47:01;;;;;;;24.17;16.98;;;;;;;24.39;83.39;94151.63;6296757;22;20200;-75
2022/08/15 09:49:48;;;;;;;23.63;17.13;;;;;;;24.39;84.35;94155.06;6301435;22;20176;-75
2022/08/15 09:52:27;;;;;;;20.42;16.35;;;;;;;24.65;83.62;94153.13;6302142;22;20156;-75
2022/08/15 09:54:58;;;;;;;18.00;16.05;;;;;;;24.91;81.15;94155.72;6301660;22;20233;-74
2022/08/15 09:57:37;;;;;;;19.35;16.10;;;;;;;25.17;80.78;94147.59;6302654;22;20572;-77
2022/08/15 10:00:20;;;;;;;19.85;15.65;;;;;;;25.45;80.31;94158.56;6302481;22;20159;-79
2022/08/15 10:02:50;;;;;;;20.80;15.88;;;;;;;25.44;79.09;94147.13;6301118;22;20161;-79
2022/08/15 10:05:27;;;;;;;20.63;15.95;;;;;;;25.38;79.25;94157.19;6301539;22;20246;-76
2022/08/15 10:07:55;;;;;;;17.15;14.93;;;;;;;25.38;79.19;94157.19;6301861;22;20171;-77
2022/08/15 10:10:42;;;;;;;16.80;14.98;;;;;;;25.40;79.04;94154.19;6302149;22;20928;-77
2022/08/15 10:13:45;;;;;;;16.85;13.88;;;;;;;25.66;77.96;94154.84;6300944;22;20163;-77
2022/08/15 10:16:43;;;;;;;17.23;13.90;;;;;;;25.98;76.70;94147.22;6301464;22;20148;-75
2022/08/15 10:19:26;;;;;;;15.13;13.38;;;;;;;26.20;76.18;94136.25;6300708;22;20235;-76
2022/08/15 10:21:54;;;;;;;23.50;13.13;;;;;;;26.46;74.47;94134.88;6301896;22;20160;-76
2022/08/15 10:24:25;;;;;;;14.27;12.75;;;;;;;26.45;73.13;94135.22;6301310;22;20196;-76
2022/08/15 10:27:20;;;;;;;13.50;11.85;;;;;;;26.50;73.73;94129.66;6301590;22;20603;-76
2022/08/15 10:29:51;;;;;;;13.63;12.05;;;;;;;26.73;73.85;94138.03;6300796;22;20831;-77
2022/08/15 10:32:41;;;;;;;13.35;11.10;;;;;;;26.98;72.27;94132.41;6301059;22;20157;-77
2022/08/15 10:35:15;;;;;;;12.27;10.95;;;;;;;27.33;71.95;94145.34;6301412;22;20159;-76
2022/08/15 10:37:51;;;;;;;13.57;12.13;;;;;;;27.77;70.54;94135.59;6301756;22;20498;-75
2022/08/15 10:40:46;;;;;;;16.83;12.05;;;;;;;28.17;69.09;94130.25;6300760;22;20152;-76
2022/08/15 10:43:29;;;;;;;13.27;11.88;;;;;;;28.26;67.89;94128.97;6301134;22;20158;-75
2022/08/15 10:46:06;;;;;;;14.13;12.20;;;;;;;28.17;67.37;94122.25;6301580;22;20160;-75
2022/08/15 10:48:58;;;;;;;16.23;11.85;;;;;;;27.97;67.20;94119.38;6301968;22;20226;-75
2022/08/15 10:51:44;;;;;;;13.35;10.95;;;;;;;27.76;67.52;94120.69;6301885;22;20153;-75
2022/08/15 10:54:22;;;;;;;14.80;11.23;;;;;;;27.93;66.92;94129.22;6301211;22;20156;-79
2022/08/15 10:56:54;;;;;;;22.10;11.00;;;;;;;27.97;67.23;94123.94;6301991;22;20217;-74
2022/08/15 10:59:25;;;;;;;15.45;11.07;;;;;;;28.06;67.92;94119.25;6301696;22;20195;-76
2022/08/15 11:02:09;;;;;;;17.10;11.93;;;;;;;28.07;66.81;94116.25;6302796;22;20192;-75
2022/08/15 11:04:39;;;;;;;12.68;10.90;;;;;;;27.88;67.50;94120.66;6303340;22;20160;-75
2022/08/15 11:07:18;;;;;;;13.27;11.88;;;;;;;27.84;68.25;94125.91;6302667;22;20175;-75
2022/08/15 11:09:52;;;;;;;12.07;10.25;;;;;;;28.12;67.49;94128.59;6303557;22;20187;-74
2022/08/15 11:12:21;;;;;;;12.02;10.15;;;;;;;28.00;66.78;94113.34;6303136;22;20156;-75
2022/08/15 11:14:53;;;;;;;13.77;11.10;;;;;;;28.12;66.06;94124.03;6303819;22;20164;-75
2022/08/15 11:17:27;;;;;;;13.48;11.07;;;;;;;28.18;66.01;94119.22;6303136;22;20160;-75
2022/08/15 11:20:00;;;;;;;11.68;10.55;;;;;;;28.28;65.86;94117.94;6303823;22;20190;-75
2022/08/15 11:22:32;;;;;;;11.98;10.65;;;;;;;28.23;64.32;94121.63;6303905;22;20148;-75
2022/08/15 11:25:03;;;;;;;11.65;10.18;;;;;;;28.30;64.06;94113.03;6303509;22;20280;-74
2022/08/15 11:27:31;;;;;;;12.95;10.20;;;;;;;28.28;64.83;94100.03;6303944;22;20159;-74
2022/08/15 11:29:58;;;;;;;11.98;10.25;;;;;;;28.65;64.28;94112.09;6303184;22;20192;-74
2022/08/15 11:32:29;;;;;;;11.40;10.23;;;;;;;29.02;62.50;94122.50;6303113;22;20172;-75
2022/08/15 11:34:57;;;;;;;13.32;10.38;;;;;;;29.10;62.60;94111.63;6303719;22;20191;-74
2022/08/15 11:37:26;;;;;;;12.93;9.77;;;;;;;29.39;60.14;94112.28;6303564;22;20631;-76
2022/08/15 11:39:59;;;;;;;11.50;9.65;;;;;;;29.54;60.75;94117.63;6303706;22;20221;-75
2022/08/15 11:42:30;;;;;;;12.20;9.57;;;;;;;29.54;58.70;94109.59;6304182;22;20239;-76